Time;durP1;ratioP1;P1;durP2;ratioP2;P2;SDS_P1;SDS_P2;PMS_P1;PMS_P2;Temp;Humidity;BMP_temperature;BMP_pressure;BME280_temperature;BME280_humidity;BME280_pressure;Samples;Min_cycle;Max_cycle;Signal;HPM_P1;HPM_P2
2022/01/14 00:00:08;;;;;;;29.92;15.57;;;;;;;3.69;100.00;100771.91;5066982;28;20040;-77
2022/01/14 00:03:07;;;;;;;28.25;15.27;;;;;;;3.66;100.00;100770.13;5095971;28;20123;-77
2022/01/14 00:05:51;;;;;;;31.85;17.08;;;;;;;3.62;100.00;100768.31;5081147;28;20043;-77
2022/01/14 00:08:35;;;;;;;31.52;17.58;;;;;;;3.67;100.00;100779.66;5081167;28;20380;-76
2022/01/14 00:11:20;;;;;;;30.60;15.43;;;;;;;3.77;100.00;100770.34;5109762;28;20032;-77
2022/01/14 00:16:49;;;;;;;27.45;16.23;;;;;;;3.75;100.00;100793.63;5096056;28;20040;-77
2022/01/14 00:19:34;;;;;;;34.22;17.17;;;;;;;3.71;100.00;100794.41;5067058;28;20044;-77
2022/01/14 00:22:18;;;;;;;34.17;17.40;;;;;;;3.78;100.00;100795.41;5080935;28;20055;-77
2022/01/14 00:33:55;;;;;;;30.10;14.80;;;;;;;3.73;100.00;100771.97;5072705;28;20070;-76
2022/01/14 00:36:41;;;;;;;33.97;17.73;;;;;;;3.77;100.00;100772.03;5080903;28;20048;-77
2022/01/14 00:39:26;;;;;;;28.00;14.48;;;;;;;3.72;100.00;100774.56;5095755;28;20429;-77
2022/01/14 00:42:11;;;;;;;31.45;15.95;;;;;;;3.78;100.00;100760.84;5080782;28;20051;-77
2022/01/14 00:44:55;;;;;;;34.42;17.15;;;;;;;3.78;100.00;100768.63;5096928;28;20040;-77
2022/01/14 00:47:40;;;;;;;27.20;13.98;;;;;;;3.76;100.00;100765.97;5099798;28;20046;-77
2022/01/14 00:50:24;;;;;;;27.83;15.80;;;;;;;3.67;100.00;100771.00;5084687;28;20036;-77
2022/01/14 00:53:09;;;;;;;24.58;15.35;;;;;;;3.70;100.00;100765.88;5067651;28;20063;-77
2022/01/14 00:56:05;;;;;;;29.73;15.90;;;;;;;3.73;100.00;100765.91;5099710;28;20035;-78
2022/01/14 01:01:56;;;;;;;29.95;15.70;;;;;;;3.80;100.00;100777.28;5084592;28;20089;-77
2022/01/14 01:04:41;;;;;;;29.88;14.90;;;;;;;3.71;100.00;100778.88;5084439;28;20120;-76
2022/01/14 01:07:25;;;;;;;29.05;17.20;;;;;;;3.52;100.00;100745.69;5099507;28;20096;-76
2022/01/14 01:10:11;;;;;;;31.58;17.73;;;;;;;3.66;100.00;100770.13;5084317;28;20078;-78
2022/01/14 01:13:08;;;;;;;26.92;15.45;;;;;;;3.61;100.00;100752.78;5070267;28;20040;-77
2022/01/14 01:15:54;;;;;;;29.48;15.77;;;;;;;3.84;100.00;100774.78;5084363;28;20044;-77
2022/01/14 01:18:38;;;;;;;29.45;15.25;;;;;;;3.69;100.00;100767.59;5099227;28;20044;-77
2022/01/14 01:21:22;;;;;;;27.90;14.25;;;;;;;3.84;100.00;100756.63;5084117;28;20459;-78
2022/01/14 01:24:10;;;;;;;27.27;15.82;;;;;;;3.72;100.00;100769.38;5084033;28;20040;-77
2022/01/14 01:26:55;;;;;;;25.20;14.63;;;;;;;3.80;100.00;100772.09;5084215;28;20093;-77
2022/01/14 01:32:24;;;;;;;23.52;14.38;;;;;;;3.74;100.00;100773.75;5083979;28;20455;-76
2022/01/14 01:35:09;;;;;;;29.90;14.98;;;;;;;3.64;100.00;100758.88;5098846;28;20044;-77
2022/01/14 01:37:53;;;;;;;29.77;16.10;;;;;;;3.57;100.00;100754.41;5083843;28;20059;-77
2022/01/14 01:40:38;;;;;;;27.55;15.52;;;;;;;3.65;100.00;100767.50;5083846;28;20058;-77
2022/01/14 01:43:25;;;;;;;22.45;14.18;;;;;;;3.64;100.00;100770.94;5112293;28;20044;-77
2022/01/14 01:46:10;;;;;;;30.63;16.90;;;;;;;3.72;100.00;100777.13;5098707;28;20040;-77
2022/01/14 01:48:55;;;;;;;29.30;16.08;;;;;;;3.74;100.00;100775.47;5083629;28;20036;-77
2022/01/14 01:51:39;;;;;;;33.80;17.33;;;;;;;3.86;100.00;100785.16;5069490;28;20048;-77
2022/01/14 01:54:24;;;;;;;31.05;17.23;;;;;;;3.71;100.00;100757.28;5098415;28;20040;-78
2022/01/14 01:57:10;;;;;;;30.00;15.43;;;;;;;3.74;100.00;100759.91;5097328;28;20052;-77
2022/01/14 01:59:55;;;;;;;28.38;16.55;;;;;;;3.59;100.00;100755.31;5083418;28;20040;-77
2022/01/14 02:02:39;;;;;;;28.75;16.83;;;;;;;3.49;100.00;100766.34;5083517;28;20119;-77
2022/01/14 02:05:24;;;;;;;32.92;17.00;;;;;;;3.68;100.00;100750.31;5098287;28;20432;-77
2022/01/14 02:08:08;;;;;;;27.38;15.88;;;;;;;3.59;100.00;100747.53;5083152;28;20040;-77
2022/01/14 02:10:53;;;;;;;33.75;18.45;;;;;;;3.67;100.00;100755.44;5083259;28;20415;-77
2022/01/14 02:13:37;;;;;;;26.17;16.50;;;;;;;3.69;100.00;100753.75;5083312;28;20044;-77
2022/01/14 02:16:47;;;;;;;24.08;15.15;;;;;;;3.63;100.00;100748.47;5083074;28;20329;-78
2022/01/14 02:19:42;;;;;;;28.08;16.23;;;;;;;3.67;100.00;100750.25;5098196;28;20169;-78
2022/01/14 02:22:27;;;;;;;29.20;15.15;;;;;;;3.62;100.00;100738.97;5080358;28;20047;-77
2022/01/14 02:25:12;;;;;;;27.48;15.35;;;;;;;3.61;100.00;100739.81;5080306;28;20051;-76
2022/01/14 02:27:57;;;;;;;26.38;16.60;;;;;;;3.59;100.00;100750.13;5068919;28;20109;-77
2022/01/14 02:30:47;;;;;;;27.13;15.95;;;;;;;3.47;100.00;100745.59;5097840;28;20047;-77
2022/01/14 02:33:31;;;;;;;27.17;15.88;;;;;;;3.52;100.00;100732.75;5082827;28;20040;-76
2022/01/14 02:36:16;;;;;;;30.23;15.80;;;;;;;3.54;100.00;100749.16;5111373;28;20044;-77
2022/01/14 02:39:01;;;;;;;31.70;16.85;;;;;;;3.54;100.00;100749.16;5096886;28;20048;-76
2022/01/14 02:41:48;;;;;;;27.35;16.30;;;;;;;3.40;100.00;100745.47;5097787;28;20040;-77
2022/01/14 02:44:33;;;;;;;24.52;14.68;;;;;;;3.43;100.00;100727.38;5111371;28;20043;-76
2022/01/14 02:47:17;;;;;;;25.60;14.38;;;;;;;3.53;100.00;100729.28;5097613;28;20044;-77
2022/01/14 02:50:06;;;;;;;25.23;16.33;;;;;;;3.45;100.00;100713.63;5065542;28;20055;-77
2022/01/14 02:55:43;;;;;;;26.65;16.05;;;;;;;3.51;100.00;100712.88;5097318;28;20055;-76
2022/01/14 02:58:29;;;;;;;27.30;14.43;;;;;;;3.55;100.00;100706.03;5082413;28;20044;-76
2022/01/14 03:01:17;;;;;;;28.25;15.45;;;;;;;3.46;100.00;100717.94;5051300;28;20463;-77
2022/01/14 03:04:03;;;;;;;24.48;15.55;;;;;;;3.23;100.00;100693.34;5110845;28;20060;-76
2022/01/14 03:06:48;;;;;;;23.80;14.27;;;;;;;3.36;100.00;100682.38;5096501;28;20044;-78
2022/01/14 03:09:32;;;;;;;24.10;14.85;;;;;;;3.38;100.00;100692.75;5096904;28;20079;-77
2022/01/14 03:12:17;;;;;;;24.75;16.00;;;;;;;3.46;100.00;100698.94;5067925;28;20036;-77
2022/01/14 03:15:01;;;;;;;30.67;16.88;;;;;;;3.44;100.00;100693.72;5097026;28;20044;-78
2022/01/14 03:17:46;;;;;;;24.25;14.63;;;;;;;3.46;100.00;100699.81;5067953;28;20044;-77
2022/01/14 03:21:00;;;;;;;29.15;15.68;;;;;;;3.48;100.00;100702.44;5081884;28;20036;-77
2022/01/14 03:23:50;;;;;;;22.67;15.27;;;;;;;3.40;100.00;100697.13;5081856;28;20036;-77
2022/01/14 03:26:34;;;;;;;24.45;15.30;;;;;;;3.33;100.00;100694.41;5097011;28;20036;-76
2022/01/14 03:29:19;;;;;;;26.55;14.30;;;;;;;3.32;100.00;100695.25;5110226;28;20043;-77
2022/01/14 03:32:04;;;;;;;25.45;15.43;;;;;;;3.37;100.00;100683.25;5096591;28;20060;-77
2022/01/14 03:34:49;;;;;;;30.20;15.80;;;;;;;3.36;100.00;100665.97;5096733;28;20040;-77
2022/01/14 03:37:33;;;;;;;24.50;14.30;;;;;;;3.38;100.00;100661.66;5081650;28;20044;-77
2022/01/14 03:40:18;;;;;;;31.20;17.25;;;;;;;3.39;100.00;100646.16;5110153;28;20414;-77
2022/01/14 03:43:02;;;;;;;25.90;14.73;;;;;;;3.47;100.00;100656.66;5081585;28;20111;-77
2022/01/14 03:45:49;;;;;;;22.80;14.65;;;;;;;3.36;100.00;100648.72;5095948;28;20047;-77
2022/01/14 03:48:34;;;;;;;24.30;14.05;;;;;;;3.28;100.00;100653.75;5096376;28;20425;-77
2022/01/14 03:51:20;;;;;;;21.45;13.95;;;;;;;3.36;100.00;100642.66;5081385;28;20044;-77
2022/01/14 03:54:05;;;;;;;26.30;14.80;;;;;;;3.41;100.00;100649.69;5046837;28;20060;-77
2022/01/14 03:56:50;;;;;;;24.55;14.88;;;;;;;3.43;100.00;100628.97;5075456;28;20044;-78
2022/01/14 03:59:34;;;;;;;25.05;14.20;;;;;;;3.37;100.00;100646.97;5061212;28;20064;-77
2022/01/14 04:02:18;;;;;;;24.00;14.80;;;;;;;3.32;100.00;100633.09;5075297;28;20326;-77
2022/01/14 04:05:04;;;;;;;25.27;13.98;;;;;;;3.32;100.00;100628.78;5061107;28;20041;-77
2022/01/14 04:07:48;;;;;;;25.05;16.25;;;;;;;3.24;100.00;100622.59;5075922;28;20102;-77
2022/01/14 04:10:32;;;;;;;29.77;20.15;;;;;;;3.38;100.00;100620.22;5075993;28;20044;-77
2022/01/14 04:13:22;;;;;;;59.85;31.00;;;;;;;3.48;100.00;100611.78;5075846;28;20036;-77
2022/01/14 04:16:07;;;;;;;126.78;56.97;;;;;;;3.31;100.00;100611.50;5075113;28;20432;-77
2022/01/14 04:18:52;;;;;;;111.22;48.90;;;;;;;3.30;100.00;100606.28;5075702;28;20053;-77
2022/01/14 04:21:37;;;;;;;30.33;18.90;;;;;;;3.28;100.00;100596.78;5060929;28;20056;-77
2022/01/14 04:24:21;;;;;;;26.13;15.70;;;;;;;3.31;100.00;100597.66;5075018;28;20064;-77
2022/01/14 04:27:06;;;;;;;26.58;14.80;;;;;;;3.37;100.00;100596.06;5075029;28;20065;-77
2022/01/14 04:29:50;;;;;;;27.48;15.32;;;;;;;3.36;100.00;100593.44;5060890;28;20036;-77
2022/01/14 04:32:34;;;;;;;29.70;15.25;;;;;;;3.39;100.00;100596.97;5060925;28;20052;-77
2022/01/14 04:35:19;;;;;;;26.60;15.93;;;;;;;3.44;100.00;100584.94;5074956;28;20053;-77
2022/01/14 04:38:04;;;;;;;25.10;15.93;;;;;;;3.41;100.00;100584.03;5060810;28;20120;-77
2022/01/14 04:40:49;;;;;;;32.58;16.55;;;;;;;3.43;100.00;100575.44;5074957;28;20055;-77
2022/01/14 04:43:33;;;;;;;29.58;17.48;;;;;;;3.35;100.00;100574.47;5060932;28;20056;-77
2022/01/14 04:47:00;;;;;;;30.00;19.05;;;;;;;3.35;100.00;100587.41;5074785;28;20040;-77
2022/01/14 04:49:28;;;;;;;30.25;17.13;;;;;;;3.47;100.00;100595.34;5075635;28;20049;-77
2022/01/14 04:52:13;;;;;;;28.40;17.35;;;;;;;3.43;100.00;100595.28;5078484;28;20059;-77
2022/01/14 04:54:57;;;;;;;27.85;16.05;;;;;;;3.40;100.00;100583.16;5080836;28;20421;-77
2022/01/14 04:57:42;;;;;;;34.45;17.35;;;;;;;3.55;100.00;100589.44;5080701;28;20047;-77
2022/01/14 05:00:28;;;;;;;42.90;23.33;;;;;;;3.44;100.00;100587.53;5066545;28;20064;-77
2022/01/14 05:03:13;;;;;;;145.88;51.58;;;;;;;3.42;100.00;100572.84;5080692;28;20044;-77
2022/01/14 05:05:59;;;;;;;119.47;45.83;;;;;;;3.56;100.00;100580.81;5080754;28;20048;-77
2022/01/14 05:08:44;;;;;;;80.53;37.65;;;;;;;3.46;100.00;100587.56;5095555;28;20098;-77
2022/01/14 05:11:39;;;;;;;68.03;31.67;;;;;;;3.54;100.00;100609.28;5080847;28;20069;-77
2022/01/14 05:14:23;;;;;;;86.40;39.88;;;;;;;3.50;100.00;100587.63;5095504;28;20044;-77
2022/01/14 05:17:08;;;;;;;94.55;42.65;;;;;;;3.51;100.00;100604.94;5080553;28;20432;-77
2022/01/14 05:19:54;;;;;;;65.88;37.58;;;;;;;3.42;100.00;100591.84;5066502;28;20059;-77
2022/01/14 05:22:39;;;;;;;34.28;17.88;;;;;;;3.49;100.00;100600.56;5066439;28;20040;-77
2022/01/14 05:25:24;;;;;;;26.67;16.77;;;;;;;3.57;100.00;100598.97;5095320;28;20051;-77
2022/01/14 05:28:08;;;;;;;32.17;18.35;;;;;;;3.56;100.00;100609.31;5095319;28;20053;-77
2022/01/14 05:30:53;;;;;;;25.67;17.08;;;;;;;3.52;100.00;100600.63;5095401;28;20055;-77
2022/01/14 05:33:41;;;;;;;33.17;18.10;;;;;;;3.50;100.00;100598.00;5098820;28;20051;-77
2022/01/14 05:36:26;;;;;;;29.52;17.10;;;;;;;3.50;100.00;100597.13;5112385;28;20043;-77
2022/01/14 05:39:11;;;;;;;34.17;17.55;;;;;;;3.53;100.00;100589.41;5083790;28;20463;-77
2022/01/14 05:41:58;;;;;;;36.30;19.73;;;;;;;3.44;100.00;100571.13;5083977;28;20097;-77
2022/01/14 05:44:42;;;;;;;36.83;18.98;;;;;;;3.49;100.00;100566.91;5083767;28;20421;-77
2022/01/14 05:47:27;;;;;;;32.58;16.83;;;;;;;3.50;100.00;100564.31;5081088;28;20448;-77
2022/01/14 05:50:14;;;;;;;30.40;17.15;;;;;;;3.45;100.00;100568.59;5083527;28;20040;-76
2022/01/14 05:52:58;;;;;;;27.75;16.83;;;;;;;3.51;100.00;100563.50;5094054;28;20063;-77
2022/01/14 05:55:43;;;;;;;27.58;16.23;;;;;;;3.53;100.00;100555.72;5104037;28;20040;-77
2022/01/14 05:58:28;;;;;;;37.67;20.38;;;;;;;3.58;100.00;100572.22;5089639;28;20044;-76
2022/01/14 06:01:12;;;;;;;33.17;18.70;;;;;;;3.43;100.00;100546.09;5103707;28;20413;-77
2022/01/14 06:04:01;;;;;;;26.35;16.13;;;;;;;3.49;100.00;100552.22;5118967;28;20112;-76
2022/01/14 06:06:46;;;;;;;32.72;16.83;;;;;;;3.34;100.00;100540.75;5132596;27;20371;-77
2022/01/14 06:09:30;;;;;;;32.15;17.23;;;;;;;3.44;100.00;100548.69;5118567;28;20043;-76
2022/01/14 06:12:15;;;;;;;30.52;17.92;;;;;;;3.41;100.00;100553.84;5103386;28;20048;-77
2022/01/14 06:15:00;;;;;;;31.98;17.08;;;;;;;3.51;100.00;100541.91;5103467;28;20398;-76
2022/01/14 06:17:45;;;;;;;31.65;17.58;;;;;;;3.40;100.00;100546.91;5132491;27;20051;-76
2022/01/14 06:20:30;;;;;;;33.50;18.98;;;;;;;3.43;100.00;100546.94;5102927;28;20036;-80
2022/01/14 06:23:14;;;;;;;33.53;17.88;;;;;;;3.38;100.00;100543.44;5087890;28;20039;-80
2022/01/14 06:25:59;;;;;;;27.60;17.55;;;;;;;3.50;100.00;100541.00;5116525;28;20032;-80
2022/01/14 06:28:44;;;;;;;32.33;17.83;;;;;;;3.39;100.00;100549.47;5101365;28;20078;-80
2022/01/14 06:31:29;;;;;;;35.67;18.17;;;;;;;3.28;100.00;100546.69;5101446;28;20053;-81
2022/01/14 06:34:14;;;;;;;40.03;18.55;;;;;;;3.20;100.00;100540.53;5101563;28;20040;-80
2022/01/14 06:37:00;;;;;;;31.60;16.98;;;;;;;3.25;100.00;100541.47;5087406;28;20042;-80
2022/01/14 06:39:45;;;;;;;26.50;17.05;;;;;;;3.27;100.00;100540.66;5098711;28;20043;-81
2022/01/14 06:42:29;;;;;;;30.88;19.40;;;;;;;3.16;100.00;100534.44;5114973;28;20420;-80
2022/01/14 06:45:13;;;;;;;49.17;28.95;;;;;;;3.23;100.00;100535.41;5100910;28;20035;-80
2022/01/14 06:47:58;;;;;;;58.97;31.67;;;;;;;3.23;100.00;100530.22;5100991;28;20439;-80
2022/01/14 06:50:42;;;;;;;43.25;26.23;;;;;;;3.14;100.00;100528.34;5087078;28;20040;-80
2022/01/14 06:53:27;;;;;;;60.97;42.15;;;;;;;3.14;100.00;100510.22;5095128;28;20048;-80
2022/01/14 06:56:13;;;;;;;36.55;23.70;;;;;;;3.17;100.00;100509.41;5095229;28;20051;-81
2022/01/14 06:58:58;;;;;;;56.40;37.30;;;;;;;3.12;100.00;100501.59;5082122;28;20360;-80
2022/01/14 07:01:42;;;;;;;81.50;33.50;;;;;;;3.19;100.00;100502.56;5082147;28;20043;-80
2022/01/14 07:04:27;;;;;;;47.58;27.60;;;;;;;3.18;100.00;100500.78;5081987;28;20097;-80
2022/01/14 07:07:11;;;;;;;45.63;25.55;;;;;;;3.28;100.00;100493.22;5081714;28;20391;-80
2022/01/14 07:09:57;;;;;;;81.80;41.17;;;;;;;3.12;100.00;100496.41;5096621;28;20040;-81
2022/01/14 07:12:43;;;;;;;40.33;25.10;;;;;;;3.17;100.00;100499.06;5096065;28;20040;-80
2022/01/14 07:15:28;;;;;;;44.60;22.48;;;;;;;3.06;100.00;100496.31;5096515;28;20273;-80
2022/01/14 07:18:12;;;;;;;30.30;17.40;;;;;;;3.15;100.00;100492.97;5081700;28;20336;-81
2022/01/14 07:20:57;;;;;;;33.17;17.35;;;;;;;3.18;100.00;100486.13;5095790;28;20040;-80
2022/01/14 07:23:41;;;;;;;32.45;17.42;;;;;;;3.14;100.00;100484.34;5096188;28;20044;-79
2022/01/14 07:26:26;;;;;;;74.70;29.67;;;;;;;3.13;100.00;100487.78;5081666;28;20047;-80
2022/01/14 07:29:10;;;;;;;108.00;41.80;;;;;;;3.15;100.00;100488.69;5081040;28;20043;-80
2022/01/14 07:31:54;;;;;;;35.80;18.17;;;;;;;3.15;100.00;100474.84;5081387;28;20047;-79
2022/01/14 07:34:39;;;;;;;34.72;19.27;;;;;;;3.17;100.00;100483.53;5094703;28;20131;-80
2022/01/14 07:37:23;;;;;;;49.95;22.00;;;;;;;3.12;100.00;100492.94;5079706;28;20036;-79
2022/01/14 07:40:08;;;;;;;33.35;18.13;;;;;;;3.19;100.00;100484.44;5095295;28;20036;-79
2022/01/14 07:42:52;;;;;;;33.75;17.08;;;;;;;3.19;100.00;100487.91;5093967;28;20039;-79
2022/01/14 07:45:37;;;;;;;32.88;17.05;;;;;;;3.20;100.00;100475.81;5079506;28;20040;-79
2022/01/14 07:48:22;;;;;;;25.92;14.90;;;;;;;3.26;100.00;100474.19;5079366;28;20040;-79
2022/01/14 07:51:08;;;;;;;25.42;14.02;;;;;;;3.36;100.00;100463.97;5094369;28;20119;-79
2022/01/14 07:53:52;;;;;;;24.55;14.43;;;;;;;3.30;100.00;100469.94;5078786;28;20063;-80
2022/01/14 07:56:58;;;;;;;31.88;17.42;;;;;;;3.12;100.00;100452.41;5093491;28;20059;-80
2022/01/14 07:59:42;;;;;;;21.98;14.65;;;;;;;3.30;100.00;100469.94;5094178;28;20044;-79
2022/01/14 08:02:26;;;;;;;25.58;14.95;;;;;;;3.28;100.00;100474.19;5093570;28;20401;-79
2022/01/14 08:05:12;;;;;;;25.77;14.68;;;;;;;3.28;100.00;100453.47;5094200;28;20055;-79
2022/01/14 08:07:58;;;;;;;26.45;14.98;;;;;;;3.31;100.00;100460.44;5093428;28;20044;-80
2022/01/14 08:10:42;;;;;;;28.98;14.65;;;;;;;3.34;100.00;100469.13;5094594;28;20463;-79
2022/01/14 08:13:27;;;;;;;27.13;14.18;;;;;;;3.50;100.00;100473.66;5095705;28;20051;-79
2022/01/14 08:16:11;;;;;;;25.58;14.07;;;;;;;3.36;100.00;100451.03;5081302;28;20036;-79
2022/01/14 08:18:56;;;;;;;25.02;15.55;;;;;;;3.43;100.00;100455.44;5096249;28;20036;-80
2022/01/14 08:21:40;;;;;;;26.98;15.68;;;;;;;3.36;100.00;100453.63;5095613;28;20040;-80
2022/01/14 08:24:24;;;;;;;27.40;16.13;;;;;;;3.42;100.00;100469.25;5095831;28;20456;-79
2022/01/14 08:27:09;;;;;;;27.65;15.15;;;;;;;3.47;100.00;100470.16;5080815;28;20456;-79
2022/01/14 08:29:53;;;;;;;28.88;15.35;;;;;;;3.46;100.00;100468.44;5095262;28;20040;-80
2022/01/14 08:32:38;;;;;;;33.88;17.92;;;;;;;3.42;100.00;100449.38;5080899;28;20436;-79
2022/01/14 08:35:23;;;;;;;26.17;13.95;;;;;;;3.46;100.00;100458.06;5095803;28;20131;-79
2022/01/14 08:38:08;;;;;;;25.27;15.07;;;;;;;3.52;100.00;100460.75;5081079;28;20052;-80
2022/01/14 08:40:53;;;;;;;21.38;12.82;;;;;;;3.54;100.00;100458.16;5081118;28;20040;-79
2022/01/14 08:43:38;;;;;;;27.42;14.85;;;;;;;3.47;100.00;100460.66;5095520;28;20048;-79
2022/01/14 08:46:23;;;;;;;25.10;13.68;;;;;;;3.54;100.00;100451.25;5080748;28;20381;-80
2022/01/14 08:49:08;;;;;;;20.77;12.55;;;;;;;3.57;100.00;100455.63;5080748;28;20040;-79
2022/01/14 08:51:53;;;;;;;21.23;12.30;;;;;;;3.44;100.00;100447.69;5081854;28;20036;-80
2022/01/14 08:54:39;;;;;;;20.83;11.43;;;;;;;3.47;100.00;100452.91;5116608;28;20051;-79
2022/01/14 08:57:23;;;;;;;21.63;13.52;;;;;;;3.57;100.00;100438.34;5086592;28;20363;-79
2022/01/14 09:00:09;;;;;;;21.70;13.05;;;;;;;3.48;100.00;100444.31;5084142;28;20333;-80
2022/01/14 09:02:54;;;;;;;23.13;12.48;;;;;;;3.51;100.00;100440.88;5100914;28;20325;-79
2022/01/14 09:05:38;;;;;;;21.35;11.52;;;;;;;3.53;100.00;100446.06;5116514;28;20340;-79
2022/01/14 09:08:23;;;;;;;20.58;12.35;;;;;;;3.63;100.00;100448.81;5090556;28;20044;-80
2022/01/14 09:11:08;;;;;;;19.23;11.88;;;;;;;3.65;100.00;100444.53;5087806;28;20055;-79
2022/01/14 09:13:52;;;;;;;22.42;12.70;;;;;;;3.58;100.00;100447.88;5120297;28;20036;-79
2022/01/14 09:16:37;;;;;;;20.63;12.95;;;;;;;3.65;100.00;100460.06;5105089;28;20048;-79
2022/01/14 09:19:21;;;;;;;20.80;12.98;;;;;;;3.56;100.00;100459.94;5120215;28;20428;-79
2022/01/14 09:22:07;;;;;;;25.85;13.30;;;;;;;3.59;100.00;100449.63;5118836;28;20095;-79
2022/01/14 09:24:52;;;;;;;25.55;14.52;;;;;;;3.62;100.00;100447.06;5133782;27;20059;-79
2022/01/14 09:27:37;;;;;;;27.27;15.20;;;;;;;3.70;100.00;100449.75;5133224;27;20352;-80
2022/01/14 09:30:22;;;;;;;22.92;14.52;;;;;;;3.65;100.00;100459.19;5119901;28;20039;-83
2022/01/14 09:33:07;;;;;;;25.60;13.77;;;;;;;3.60;100.00;100438.41;5104293;28;20097;-79
2022/01/14 09:35:51;;;;;;;33.22;17.83;;;;;;;3.71;100.00;100442.00;5104118;28;20059;-80
2022/01/14 09:38:35;;;;;;;31.55;16.98;;;;;;;3.65;100.00;100423.78;5104296;28;20156;-79
2022/01/14 09:41:20;;;;;;;27.00;14.52;;;;;;;3.68;100.00;100422.97;5104351;28;20039;-79
2022/01/14 09:44:05;;;;;;;24.27;14.88;;;;;;;3.74;100.00;100425.63;5119190;28;20398;-80
2022/01/14 09:46:51;;;;;;;26.85;13.73;;;;;;;3.79;100.00;100431.72;5104293;28;20044;-79
2022/01/14 09:49:37;;;;;;;21.17;11.93;;;;;;;3.53;100.00;100396.84;5103872;28;20036;-79
2022/01/14 09:52:21;;;;;;;22.92;13.32;;;;;;;3.69;100.00;100414.34;5104034;28;20079;-79
2022/01/14 09:55:06;;;;;;;29.55;15.88;;;;;;;3.69;100.00;100402.25;5103918;28;20441;-79
2022/01/14 09:57:54;;;;;;;23.35;14.13;;;;;;;3.68;100.00;100390.16;5118865;28;20380;-79
2022/01/14 10:00:38;;;;;;;29.80;15.05;;;;;;;3.77;100.00;100402.34;5103728;28;20039;-79
2022/01/14 10:03:25;;;;;;;26.40;14.50;;;;;;;3.85;100.00;100403.31;5118788;28;20118;-79
2022/01/14 10:06:09;;;;;;;24.45;14.57;;;;;;;3.80;100.00;100391.13;5104098;28;20066;-79
2022/01/14 10:09:04;;;;;;;22.17;13.20;;;;;;;3.89;100.00;100393.84;5103637;28;20031;-79
2022/01/14 10:12:10;;;;;;;21.42;13.15;;;;;;;3.86;100.00;100378.25;5103540;28;20367;-80
2022/01/14 10:15:09;;;;;;;23.67;13.27;;;;;;;3.90;100.00;100396.47;5106108;27;20426;-79
2022/01/14 10:17:59;;;;;;;24.33;13.02;;;;;;;3.87;100.00;100386.06;5117970;28;20047;-80
2022/01/14 10:20:45;;;;;;;25.42;13.43;;;;;;;3.88;100.00;100369.66;5103649;28;20039;-80
2022/01/14 10:23:47;;;;;;;23.15;13.27;;;;;;;3.88;100.00;100386.94;5089076;28;20039;-80
2022/01/14 10:26:49;;;;;;;24.02;13.65;;;;;;;3.92;100.00;100366.22;5103208;28;20070;-79
2022/01/14 10:29:38;;;;;;;21.58;13.55;;;;;;;4.02;100.00;100369.78;5118213;28;20040;-78
2022/01/14 10:32:30;;;;;;;24.92;13.73;;;;;;;3.83;100.00;100366.13;5089145;28;20047;-80
2022/01/14 10:35:18;;;;;;;23.30;14.10;;;;;;;3.91;100.00;100367.09;5117535;28;20352;-79
2022/01/14 10:38:07;;;;;;;28.75;15.32;;;;;;;4.00;100.00;100350.78;5088364;28;20054;-79
2022/01/14 10:40:57;;;;;;;22.77;13.07;;;;;;;3.89;100.00;100353.22;5102914;28;20059;-79
2022/01/14 10:43:42;;;;;;;24.17;14.20;;;;;;;3.88;100.00;100345.47;5102927;28;20051;-79
2022/01/14 10:46:29;;;;;;;25.88;13.23;;;;;;;3.91;100.00;100335.13;5116869;28;20428;-80
2022/01/14 10:49:32;;;;;;;24.33;15.05;;;;;;;3.94;100.00;100336.03;5115888;28;20043;-80
2022/01/14 10:52:18;;;;;;;25.38;15.40;;;;;;;3.92;100.00;100340.31;5086383;28;20352;-80
2022/01/14 10:55:02;;;;;;;26.95;13.57;;;;;;;3.98;100.00;100324.81;5100980;28;20420;-80
2022/01/14 10:57:49;;;;;;;19.15;12.30;;;;;;;3.96;100.00;100325.66;5100937;28;20424;-79
2022/01/14 11:00:48;;;;;;;29.17;15.85;;;;;;;3.93;100.00;100317.84;5115807;28;20040;-79
2022/01/14 11:03:37;;;;;;;24.98;15.27;;;;;;;3.99;100.00;100307.53;5100640;28;20039;-79
2022/01/14 11:06:24;;;;;;;22.55;13.68;;;;;;;3.98;100.00;100314.47;5100683;28;20074;-79
2022/01/14 11:09:12;;;;;;;49.50;24.35;;;;;;;4.08;100.00;100299.84;5114937;28;20036;-80
2022/01/14 11:11:56;;;;;;;51.67;24.85;;;;;;;3.90;100.00;100299.66;5100556;28;20475;-80
2022/01/14 11:14:41;;;;;;;26.30;15.05;;;;;;;3.93;100.00;100287.63;5117156;28;20072;-79
2022/01/14 11:17:25;;;;;;;23.48;15.35;;;;;;;3.88;100.00;100271.16;5088100;28;20036;-80
2022/01/14 11:20:11;;;;;;;25.58;16.90;;;;;;;3.99;100.00;100284.22;5102336;28;20128;-79
2022/01/14 11:26:15;;;;;;;28.48;16.00;;;;;;;3.97;100.00;100285.94;5115478;28;20497;-80
2022/01/14 11:29:21;;;;;;;24.55;15.60;;;;;;;3.95;100.00;100293.69;5102979;28;20074;-80
2022/01/14 11:32:08;;;;;;;28.15;16.33;;;;;;;3.94;100.00;100283.31;5115460;28;20035;-79
2022/01/14 11:34:52;;;;;;;25.10;15.35;;;;;;;4.05;100.00;100275.63;5100178;28;20108;-79
2022/01/14 11:37:39;;;;;;;26.38;14.80;;;;;;;4.09;100.00;100299.00;5086565;28;20062;-79
2022/01/14 11:40:24;;;;;;;24.70;14.55;;;;;;;4.03;100.00;100283.41;5099988;28;20035;-79
2022/01/14 11:43:08;;;;;;;23.00;13.05;;;;;;;4.00;100.00;100267.84;5100021;28;20040;-79
2022/01/14 11:45:53;;;;;;;27.17;14.05;;;;;;;3.99;100.00;100266.94;5115063;28;20118;-79
2022/01/14 11:48:45;;;;;;;23.63;14.38;;;;;;;4.14;100.00;100293.88;5115060;28;20160;-79
2022/01/14 11:51:29;;;;;;;25.55;15.48;;;;;;;3.96;100.00;100291.97;5100515;28;20039;-79
2022/01/14 11:54:13;;;;;;;25.65;14.60;;;;;;;4.12;100.00;100306.81;5116126;28;20100;-80
2022/01/14 11:56:57;;;;;;;22.50;14.02;;;;;;;4.09;100.00;100279.97;5101944;28;20044;-80
2022/01/14 11:59:43;;;;;;;26.65;14.18;;;;;;;4.13;100.00;100279.19;5116771;28;20445;-80
2022/01/14 12:02:29;;;;;;;25.55;15.27;;;;;;;4.14;100.00;100280.91;5117270;28;20048;-79
2022/01/14 12:05:15;;;;;;;18.38;11.38;;;;;;;4.05;100.00;100270.44;5116819;28;20051;-79
2022/01/14 12:08:03;;;;;;;26.38;14.35;;;;;;;3.97;100.00;100278.16;5070625;28;20305;-80
2022/01/14 12:10:58;;;;;;;23.02;13.25;;;;;;;4.07;100.00;100297.25;5116674;28;20043;-79
2022/01/14 12:13:53;;;;;;;23.08;12.88;;;;;;;4.00;100.00;100298.94;5116578;28;20055;-80
2022/01/14 12:16:59;;;;;;;20.80;12.18;;;;;;;4.09;100.00;100288.63;5101635;28;20441;-79
2022/01/14 12:19:44;;;;;;;22.40;12.35;;;;;;;4.07;100.00;100271.34;5116554;28;20173;-79
2022/01/14 12:22:28;;;;;;;26.13;13.50;;;;;;;3.88;100.00;100257.34;5116400;28;20344;-78
2022/01/14 12:25:14;;;;;;;23.15;13.15;;;;;;;3.89;100.00;100267.72;5087059;28;20070;-79
2022/01/14 12:28:19;;;;;;;22.73;12.05;;;;;;;3.88;100.00;100257.34;5115578;28;20047;-79
2022/01/14 12:31:04;;;;;;;21.10;12.63;;;;;;;4.00;100.00;100288.56;5104041;28;20047;-79
2022/01/14 12:33:49;;;;;;;22.17;12.82;;;;;;;3.92;100.00;100279.84;5101590;28;20044;-79
2022/01/14 12:36:35;;;;;;;21.67;12.68;;;;;;;3.92;100.00;100275.50;5116665;28;20115;-80
2022/01/14 12:39:20;;;;;;;24.63;13.70;;;;;;;3.93;100.00;100282.47;5070355;28;20210;-79
2022/01/14 12:42:05;;;;;;;22.63;12.73;;;;;;;3.91;100.00;100297.13;5104650;28;20044;-77
2022/01/14 12:44:52;;;;;;;23.75;12.35;;;;;;;3.73;100.00;100291.72;5105811;28;20109;-79
2022/01/14 12:47:41;;;;;;;20.35;11.80;;;;;;;3.74;100.00;100278.81;5107989;27;20470;-79
2022/01/14 12:50:29;;;;;;;21.08;12.20;;;;;;;3.83;100.00;100290.09;5134064;27;20043;-79
2022/01/14 12:53:18;;;;;;;23.52;12.68;;;;;;;3.86;100.00;100293.59;5105140;28;20051;-81
2022/01/14 12:56:17;;;;;;;20.25;11.35;;;;;;;3.80;100.00;100279.72;5105174;28;20444;-80
2022/01/14 12:59:10;;;;;;;24.45;12.40;;;;;;;3.85;100.00;100278.03;5120782;28;20036;-80